Time;durP1;ratioP1;P1;durP2;ratioP2;P2;SDS_P1;SDS_P2;PMS_P1;PMS_P2;Temp;Humidity;BMP_temperature;BMP_pressure;BME280_temperature;BME280_humidity;BME280_pressure;Samples;Min_cycle;Max_cycle;Signal;HPM_P1;HPM_P2
2022/07/12 00:01:32;;;;;;;8.13;5.38;;;16.00;99.90;;;;;;5052636;28;20036;-50
2022/07/12 00:03:58;;;;;;;9.98;6.45;;;16.00;99.90;;;;;;5052894;28;20090;-46
2022/07/12 00:06:23;;;;;;;10.85;6.95;;;16.00;99.90;;;;;;5034920;28;20064;-46
2022/07/12 00:08:49;;;;;;;11.35;6.80;;;16.00;99.90;;;;;;5052877;28;20122;-45
2022/07/12 00:11:15;;;;;;;10.73;6.18;;;16.00;99.90;;;;;;5052582;28;20497;-46
2022/07/12 00:13:41;;;;;;;8.73;6.30;;;16.00;99.90;;;;;;5052516;28;20094;-47
2022/07/12 00:16:07;;;;;;;10.20;5.97;;;16.10;99.90;;;;;;5052276;28;20041;-47
2022/07/12 00:18:33;;;;;;;9.70;6.63;;;16.10;99.90;;;;;;5052603;28;20048;-49
2022/07/12 00:20:58;;;;;;;9.88;6.65;;;16.00;99.90;;;;;;5052406;28;20052;-45
2022/07/12 00:23:24;;;;;;;10.27;6.80;;;15.90;99.90;;;;;;5052106;28;20757;-48
2022/07/12 00:25:50;;;;;;;10.10;5.90;;;16.00;99.90;;;;;;5052412;28;20091;-49
2022/07/12 00:28:15;;;;;;;11.82;7.10;;;15.90;99.90;;;;;;5051057;28;20076;-45
2022/07/12 00:30:41;;;;;;;10.50;7.07;;;16.00;99.90;;;;;;5052515;28;20052;-45
2022/07/12 00:33:08;;;;;;;10.00;6.95;;;16.00;99.90;;;;;;5052259;28;20571;-44
2022/07/12 00:35:34;;;;;;;9.77;6.43;;;16.00;99.90;;;;;;5052179;28;20072;-46
2022/07/12 00:38:00;;;;;;;8.38;5.65;;;16.00;99.90;;;;;;5052466;28;20064;-45
2022/07/12 00:40:25;;;;;;;10.25;6.75;;;15.90;99.90;;;;;;5050982;28;20052;-45
2022/07/12 00:42:51;;;;;;;8.82;6.00;;;16.00;99.90;;;;;;5050898;28;20106;-44
2022/07/12 00:45:17;;;;;;;9.88;6.85;;;16.00;99.90;;;;;;5052227;28;20045;-44
2022/07/12 00:47:44;;;;;;;10.68;6.18;;;15.90;99.90;;;;;;5051628;28;20060;-46
2022/07/12 00:50:14;;;;;;;9.80;6.70;;;16.00;99.90;;;;;;5050909;28;20045;-50
2022/07/12 00:52:41;;;;;;;9.45;6.07;;;16.00;99.90;;;;;;5052013;28;20048;-49
2022/07/12 00:55:08;;;;;;;8.98;5.85;;;16.00;99.90;;;;;;5051958;28;20401;-47
2022/07/12 00:57:35;;;;;;;9.05;6.38;;;15.90;99.90;;;;;;5051942;28;20039;-50
2022/07/12 01:00:02;;;;;;;9.07;5.85;;;15.90;99.90;;;;;;5052160;28;20044;-46
2022/07/12 01:02:29;;;;;;;11.45;6.68;;;15.90;99.90;;;;;;5051799;28;20048;-47
2022/07/12 01:04:55;;;;;;;13.10;6.60;;;15.80;99.90;;;;;;5052035;28;20045;-47
2022/07/12 01:07:23;;;;;;;11.18;6.40;;;15.80;99.90;;;;;;5051709;28;20131;-49
2022/07/12 01:09:50;;;;;;;10.27;6.70;;;15.90;99.90;;;;;;5051673;28;20550;-48
2022/07/12 01:12:16;;;;;;;11.32;6.85;;;15.90;99.90;;;;;;5033948;28;20029;-47
2022/07/12 01:14:43;;;;;;;9.32;6.07;;;15.80;99.90;;;;;;5052004;28;20190;-45
2022/07/12 01:17:08;;;;;;;9.82;5.75;;;15.80;99.90;;;;;;5051738;28;20120;-45
2022/07/12 01:19:36;;;;;;;11.02;7.10;;;15.90;99.90;;;;;;5051844;28;20129;-45
2022/07/12 01:22:06;;;;;;;9.38;6.25;;;15.90;99.90;;;;;;5051749;28;20067;-46
2022/07/12 01:24:31;;;;;;;8.70;5.88;;;15.90;99.90;;;;;;5050506;28;20106;-44
2022/07/12 01:26:57;;;;;;;8.45;5.28;;;15.90;99.90;;;;;;5051703;28;20115;-44
2022/07/12 01:29:23;;;;;;;9.73;6.30;;;15.90;99.90;;;;;;5052003;28;20504;-45
2022/07/12 01:31:49;;;;;;;9.73;6.00;;;15.90;99.90;;;;;;5051578;28;20087;-45
2022/07/12 01:34:15;;;;;;;10.38;6.15;;;15.90;99.90;;;;;;5051856;28;20048;-46
2022/07/12 01:36:41;;;;;;;9.60;6.68;;;15.90;99.90;;;;;;5054576;28;20051;-46
2022/07/12 01:39:07;;;;;;;10.07;6.20;;;15.70;99.90;;;;;;5055498;28;20489;-45
2022/07/12 01:41:32;;;;;;;11.00;7.28;;;15.80;99.90;;;;;;5055242;28;20051;-45
2022/07/12 01:43:59;;;;;;;11.25;7.85;;;15.80;99.90;;;;;;5055546;28;20076;-46
2022/07/12 01:46:25;;;;;;;10.25;6.82;;;15.80;99.90;;;;;;5055269;28;20041;-46
2022/07/12 01:48:50;;;;;;;9.80;6.60;;;15.60;99.90;;;;;;5055445;28;20051;-45
2022/07/12 01:51:16;;;;;;;8.73;5.43;;;15.60;99.90;;;;;;5055321;28;20037;-46
2022/07/12 01:53:42;;;;;;;9.68;5.43;;;15.70;99.90;;;;;;5037279;28;20051;-45
2022/07/12 01:56:09;;;;;;;8.02;5.25;;;15.60;99.90;;;;;;5055263;28;20079;-46
2022/07/12 01:58:35;;;;;;;10.35;6.63;;;15.70;99.90;;;;;;5055311;28;20067;-47
2022/07/12 02:01:01;;;;;;;9.90;6.22;;;15.70;99.90;;;;;;5037357;28;20052;-45
2022/07/12 02:03:26;;;;;;;9.25;5.63;;;15.50;99.90;;;;;;5036863;28;20048;-45
2022/07/12 02:05:52;;;;;;;8.73;5.53;;;15.50;99.90;;;;;;5054753;28;20037;-46
2022/07/12 02:08:18;;;;;;;8.13;5.80;;;15.50;99.90;;;;;;5054790;28;20090;-48
2022/07/12 02:10:43;;;;;;;9.55;5.85;;;15.70;99.90;;;;;;5055093;28;20033;-46
2022/07/12 02:13:10;;;;;;;8.73;5.80;;;15.70;99.90;;;;;;5054634;28;20477;-48
2022/07/12 02:15:36;;;;;;;8.50;5.75;;;15.70;99.90;;;;;;5055013;28;20419;-46
2022/07/12 02:18:02;;;;;;;9.35;6.00;;;15.70;99.90;;;;;;5054745;28;20048;-45
2022/07/12 02:20:28;;;;;;;8.82;6.28;;;15.60;99.90;;;;;;5037450;28;20037;-45
2022/07/12 02:22:53;;;;;;;10.68;6.82;;;15.60;99.90;;;;;;5054721;28;20126;-46
2022/07/12 02:25:19;;;;;;;10.68;6.15;;;15.60;99.90;;;;;;5054490;28;20047;-45
2022/07/12 02:27:45;;;;;;;8.70;5.82;;;15.60;99.90;;;;;;5054840;28;20041;-49
2022/07/12 02:30:11;;;;;;;9.65;6.45;;;15.70;99.90;;;;;;5054731;28;20044;-44
2022/07/12 02:32:37;;;;;;;9.32;6.82;;;15.60;99.90;;;;;;5054403;28;20405;-45
2022/07/12 02:35:06;;;;;;;9.00;5.65;;;15.70;99.90;;;;;;5054519;28;20045;-48
2022/07/12 02:37:32;;;;;;;10.00;6.38;;;15.70;99.90;;;;;;5054562;28;20124;-45
2022/07/12 02:42:43;;;;;;;11.10;8.13;;;15.40;99.90;;;;;;5054450;28;20052;-49
2022/07/12 02:45:10;;;;;;;8.80;6.47;;;15.40;99.90;;;;;;5054266;28;20072;-47
2022/07/12 02:47:39;;;;;;;10.00;6.90;;;15.40;99.90;;;;;;5053088;28;20037;-46
2022/07/12 02:50:06;;;;;;;10.15;7.15;;;15.50;99.90;;;;;;5054048;28;20500;-50
2022/07/12 02:52:33;;;;;;;10.93;7.75;;;15.50;99.90;;;;;;5054301;28;20569;-46
2022/07/12 02:54:58;;;;;;;12.15;7.93;;;15.40;99.90;;;;;;5054456;28;20072;-44
2022/07/12 02:57:24;;;;;;;11.30;7.97;;;15.40;99.90;;;;;;5054366;28;20126;-44
2022/07/12 02:59:50;;;;;;;11.90;8.80;;;15.40;99.90;;;;;;5054100;28;20086;-45
2022/07/12 03:02:16;;;;;;;12.05;7.97;;;15.40;99.90;;;;;;5054252;28;20362;-44
2022/07/12 03:04:42;;;;;;;20.08;8.55;;;15.50;99.90;;;;;;5054097;28;20120;-45
2022/07/12 03:07:07;;;;;;;13.50;8.52;;;15.40;99.90;;;;;;5035618;28;20132;-47
2022/07/12 03:09:33;;;;;;;13.20;7.93;;;15.40;99.90;;;;;;5053971;28;20040;-45
2022/07/12 03:11:59;;;;;;;10.35;7.65;;;15.30;99.90;;;;;;5053784;28;20090;-46
2022/07/12 03:14:24;;;;;;;13.85;9.05;;;15.30;99.90;;;;;;5053857;28;20048;-47
2022/07/12 03:16:50;;;;;;;15.43;9.45;;;15.30;99.90;;;;;;5053848;28;20128;-46
2022/07/12 03:19:16;;;;;;;20.35;8.98;;;15.30;99.90;;;;;;5035963;28;20045;-45
2022/07/12 03:21:42;;;;;;;15.77;9.32;;;15.30;99.90;;;;;;5053704;28;20053;-46
2022/07/12 03:24:07;;;;;;;14.98;7.90;;;15.20;99.90;;;;;;5053571;28;20485;-44
2022/07/12 03:26:33;;;;;;;32.40;11.25;;;15.30;99.90;;;;;;5053791;28;20072;-49
2022/07/12 03:29:02;;;;;;;13.57;8.68;;;15.30;99.90;;;;;;5053788;28;20036;-45
2022/07/12 03:31:28;;;;;;;23.33;10.70;;;15.40;99.90;;;;;;5052286;28;20044;-45
2022/07/12 03:33:54;;;;;;;14.27;9.50;;;15.30;99.90;;;;;;5053310;28;20037;-46
2022/07/12 03:36:20;;;;;;;23.02;10.40;;;15.30;99.90;;;;;;5053394;28;20450;-44
2022/07/12 03:38:46;;;;;;;16.38;8.63;;;15.20;99.90;;;;;;5053463;28;20091;-46
2022/07/12 03:41:12;;;;;;;16.58;10.43;;;15.30;99.90;;;;;;5053227;28;20045;-45
2022/07/12 03:43:37;;;;;;;13.70;10.35;;;15.20;99.90;;;;;;5053021;28;20094;-50
2022/07/12 03:46:03;;;;;;;14.13;9.93;;;15.20;99.90;;;;;;5053182;28;20159;-45
2022/07/12 03:48:29;;;;;;;16.40;9.52;;;15.30;99.90;;;;;;5053104;28;20037;-45
2022/07/12 03:50:55;;;;;;;13.07;9.07;;;15.30;99.90;;;;;;5052857;28;20796;-44
2022/07/12 03:53:21;;;;;;;12.50;8.55;;;15.40;99.90;;;;;;5052944;28;20124;-45
2022/07/12 03:55:47;;;;;;;16.17;8.73;;;15.30;99.90;;;;;;5053196;28;20039;-45
2022/07/12 03:58:13;;;;;;;16.73;8.30;;;15.40;99.90;;;;;;5052450;28;20392;-45
2022/07/12 04:00:40;;;;;;;15.18;8.32;;;15.40;99.90;;;;;;5052983;28;20037;-46
2022/07/12 04:03:06;;;;;;;57.55;10.02;;;15.30;99.90;;;;;;5052656;28;20082;-45
2022/07/12 04:05:31;;;;;;;14.45;8.75;;;15.30;99.90;;;;;;5052907;28;20041;-48
2022/07/12 04:07:57;;;;;;;35.45;8.40;;;15.30;99.90;;;;;;5052416;28;20497;-45
2022/07/12 04:10:23;;;;;;;117.45;13.13;;;15.30;99.90;;;;;;5052563;28;20045;-46
2022/07/12 04:12:49;;;;;;;43.95;10.77;;;15.20;99.90;;;;;;5052560;28;20474;-45
2022/07/12 04:15:14;;;;;;;24.23;9.27;;;15.20;99.90;;;;;;5052717;28;20041;-46
2022/07/12 04:17:40;;;;;;;21.60;8.75;;;15.40;99.90;;;;;;5052613;28;20481;-46
2022/07/12 04:20:06;;;;;;;28.90;8.52;;;15.30;99.90;;;;;;5052133;28;20090;-46
2022/07/12 04:22:32;;;;;;;20.25;8.80;;;15.40;99.90;;;;;;5052172;28;20041;-45
2022/07/12 04:24:58;;;;;;;29.83;8.02;;;15.30;99.90;;;;;;5052246;28;20057;-45
2022/07/12 04:27:26;;;;;;;32.85;8.13;;;15.20;99.90;;;;;;5052696;28;20041;-47
2022/07/12 04:29:52;;;;;;;16.25;7.55;;;15.20;99.90;;;;;;5051193;28;20041;-45
2022/07/12 04:32:18;;;;;;;28.35;8.35;;;15.30;99.90;;;;;;5052050;28;20080;-47
2022/07/12 04:34:43;;;;;;;11.40;7.53;;;15.20;99.90;;;;;;5052168;28;20079;-49
2022/07/12 04:37:09;;;;;;;14.95;7.55;;;15.30;99.90;;;;;;5052222;28;20048;-49
2022/07/12 04:39:35;;;;;;;17.10;8.13;;;15.30;99.90;;;;;;5050853;28;20052;-49
2022/07/12 04:42:01;;;;;;;16.65;7.47;;;15.30;99.90;;;;;;5052469;28;20045;-46
2022/07/12 04:44:27;;;;;;;16.13;7.63;;;15.40;99.90;;;;;;5052105;28;20033;-46
2022/07/12 04:46:53;;;;;;;16.65;7.72;;;15.20;99.90;;;;;;5052273;28;20382;-48
2022/07/12 04:49:19;;;;;;;35.67;9.43;;;15.20;99.90;;;;;;5052324;28;20043;-49
2022/07/12 04:51:45;;;;;;;27.92;9.50;;;15.20;99.90;;;;;;5052150;28;20045;-45
2022/07/12 04:54:10;;;;;;;22.48;9.65;;;15.10;99.90;;;;;;5052258;28;20112;-46
2022/07/12 04:56:36;;;;;;;14.60;8.35;;;15.30;99.90;;;;;;5051922;28;20140;-45
2022/07/12 04:59:02;;;;;;;12.15;7.90;;;15.40;99.90;;;;;;5051901;28;20036;-46
2022/07/12 05:01:32;;;;;;;17.55;8.95;;;15.20;99.90;;;;;;5051804;28;20073;-49
2022/07/12 05:03:58;;;;;;;14.88;7.45;;;15.30;99.90;;;;;;5034144;28;20044;-49
2022/07/12 05:06:23;;;;;;;19.77;7.63;;;15.30;99.90;;;;;;5051883;28;20037;-48
2022/07/12 05:08:49;;;;;;;11.82;6.25;;;15.30;99.90;;;;;;5052248;28;20095;-49
2022/07/12 05:11:15;;;;;;;11.90;7.40;;;15.40;99.90;;;;;;5054256;28;20389;-46
2022/07/12 05:13:41;;;;;;;18.27;7.60;;;15.40;99.90;;;;;;5056212;28;20776;-49
2022/07/12 05:16:09;;;;;;;13.30;6.43;;;15.50;99.90;;;;;;5056026;28;20112;-45
2022/07/12 05:18:35;;;;;;;15.18;7.15;;;15.50;99.90;;;;;;5056054;28;20119;-44
2022/07/12 05:21:01;;;;;;;18.73;7.43;;;15.40;99.90;;;;;;5055975;28;20080;-44
2022/07/12 05:23:27;;;;;;;14.02;7.40;;;15.40;99.90;;;;;;5054420;28;20127;-44
2022/07/12 05:25:53;;;;;;;11.90;6.75;;;15.30;99.90;;;;;;5054468;28;20120;-44
2022/07/12 05:28:19;;;;;;;16.55;7.55;;;15.50;99.90;;;;;;5071192;28;20036;-45
2022/07/12 05:30:45;;;;;;;16.17;7.97;;;15.40;99.90;;;;;;5054508;28;20044;-46
2022/07/12 05:33:12;;;;;;;11.32;7.32;;;15.40;99.90;;;;;;5038050;28;20041;-44
2022/07/12 05:35:38;;;;;;;11.35;6.90;;;15.50;99.90;;;;;;5055579;28;20515;-45
2022/07/12 05:38:03;;;;;;;10.45;7.00;;;15.60;99.90;;;;;;5055736;28;20043;-46
2022/07/12 05:40:29;;;;;;;10.60;6.68;;;15.60;99.90;;;;;;5055877;28;20041;-44
2022/07/12 05:42:55;;;;;;;11.52;7.35;;;15.60;99.90;;;;;;5055319;28;20040;-45
2022/07/12 05:45:22;;;;;;;11.23;7.13;;;15.50;99.90;;;;;;5037477;28;20048;-44
2022/07/12 05:47:48;;;;;;;12.10;7.80;;;15.60;99.90;;;;;;5055567;28;20127;-47
2022/07/12 05:50:14;;;;;;;12.45;7.60;;;15.50;99.90;;;;;;5055201;28;20480;-43
2022/07/12 05:55:24;;;;;;;11.05;6.10;;;15.40;99.90;;;;;;5055418;28;20440;-45
2022/07/12 05:57:50;;;;;;;12.45;7.00;;;15.60;99.90;;;;;;5054914;28;20040;-46
2022/07/12 06:00:16;;;;;;;10.73;6.85;;;15.70;99.90;;;;;;5054275;28;20124;-46
2022/07/12 06:02:42;;;;;;;12.75;7.43;;;15.70;99.90;;;;;;5053973;28;20049;-44
2022/07/12 06:05:08;;;;;;;9.82;6.88;;;15.80;99.90;;;;;;5054257;28;20432;-47
2022/07/12 06:07:34;;;;;;;11.65;7.53;;;15.90;99.90;;;;;;5054033;28;20049;-46
2022/07/12 06:10:00;;;;;;;12.75;8.00;;;15.90;99.90;;;;;;5053872;28;20426;-48
2022/07/12 06:12:25;;;;;;;10.13;6.95;;;16.00;99.90;;;;;;5036169;28;20044;-49
2022/07/12 06:14:51;;;;;;;11.55;8.68;;;16.00;99.90;;;;;;5053911;28;20079;-46
2022/07/12 06:17:21;;;;;;;10.57;7.68;;;16.00;99.90;;;;;;5054098;28;20611;-45
2022/07/12 06:19:47;;;;;;;10.63;7.80;;;16.10;99.90;;;;;;5053877;28;20045;-47
2022/07/12 06:22:13;;;;;;;11.82;8.20;;;16.20;99.90;;;;;;5053716;28;20056;-47
2022/07/12 06:24:38;;;;;;;10.48;7.68;;;16.10;99.90;;;;;;5053386;28;20410;-50
2022/07/12 06:27:04;;;;;;;11.85;7.90;;;16.10;99.90;;;;;;5053054;28;20073;-50
2022/07/12 06:29:30;;;;;;;10.73;8.00;;;16.20;99.90;;;;;;5068930;28;20047;-48
2022/07/12 06:31:56;;;;;;;10.88;7.53;;;16.30;99.90;;;;;;5053612;28;20029;-47
2022/07/12 06:34:22;;;;;;;9.35;6.32;;;16.50;99.90;;;;;;5053444;28;20087;-49
2022/07/12 06:36:47;;;;;;;10.68;6.50;;;16.70;99.90;;;;;;5053764;28;20086;-47
2022/07/12 06:39:13;;;;;;;8.23;5.75;;;16.70;99.90;;;;;;5053246;28;20051;-48
2022/07/12 06:41:38;;;;;;;10.27;5.63;;;16.90;99.90;;;;;;5053047;28;20044;-46
2022/07/12 06:44:04;;;;;;;8.15;5.45;;;17.00;99.90;;;;;;5053387;28;20041;-45
2022/07/12 06:46:30;;;;;;;10.18;6.07;;;17.20;99.90;;;;;;5053318;28;20037;-45
2022/07/12 06:48:55;;;;;;;7.82;5.00;;;17.20;99.90;;;;;;5053516;28;20164;-46
2022/07/12 06:51:21;;;;;;;7.60;4.75;;;17.40;99.90;;;;;;5053343;28;20044;-48
2022/07/12 06:53:47;;;;;;;7.45;4.50;;;17.50;99.90;;;;;;5053304;28;20045;-45
2022/07/12 06:56:12;;;;;;;8.63;4.72;;;17.70;99.90;;;;;;5052731;28;20041;-46
2022/07/12 06:58:38;;;;;;;7.15;4.15;;;18.00;99.90;;;;;;5053624;28;20037;-49
2022/07/12 07:01:03;;;;;;;6.65;3.95;;;18.30;99.90;;;;;;5053159;28;20041;-48
2022/07/12 07:03:29;;;;;;;7.53;4.35;;;18.40;99.90;;;;;;5053035;28;20074;-45
2022/07/12 07:05:55;;;;;;;6.32;3.92;;;18.60;99.90;;;;;;5052881;28;20076;-46
2022/07/12 07:08:20;;;;;;;6.55;4.13;;;18.60;99.90;;;;;;5052341;28;20540;-45
2022/07/12 07:10:47;;;;;;;6.43;3.78;;;18.70;99.90;;;;;;5052795;28;20469;-46
2022/07/12 07:13:13;;;;;;;6.28;3.85;;;18.60;99.90;;;;;;5035156;28;20087;-49
2022/07/12 07:15:42;;;;;;;6.47;3.20;;;18.70;99.90;;;;;;5052751;28;20404;-46
2022/07/12 07:18:08;;;;;;;7.05;3.20;;;18.90;99.90;;;;;;5051587;28;20072;-46
2022/07/12 07:20:34;;;;;;;5.72;3.42;;;19.00;99.90;;;;;;5047266;28;20445;-49
2022/07/12 07:23:00;;;;;;;6.68;3.08;;;19.10;99.90;;;;;;5043351;28;20120;-47
2022/07/12 07:25:25;;;;;;;6.30;3.80;;;19.10;99.90;;;;;;5052158;28;20121;-48
2022/07/12 07:27:51;;;;;;;6.38;3.50;;;19.20;99.90;;;;;;5052308;28;20497;-48
2022/07/12 07:33:01;;;;;;;5.75;3.22;;;19.40;99.90;;;;;;5051549;28;20052;-46
2022/07/12 07:35:26;;;;;;;5.82;3.03;;;19.60;99.90;;;;;;5034819;28;20037;-48
2022/07/12 07:37:52;;;;;;;6.53;3.10;;;19.70;99.90;;;;;;5034404;28;20047;-47
2022/07/12 07:40:18;;;;;;;5.72;2.80;;;19.80;99.90;;;;;;5052355;28;20045;-46
2022/07/12 07:42:44;;;;;;;5.85;3.10;;;19.90;99.90;;;;;;5034782;28;20146;-45
2022/07/12 07:45:10;;;;;;;6.22;2.90;;;20.10;99.90;;;;;;5052515;28;20107;-46
2022/07/12 07:47:48;;;;;;;5.47;2.95;;;20.10;99.90;;;;;;5052281;28;20076;-45
2022/07/12 07:50:13;;;;;;;7.30;2.90;;;20.10;99.90;;;;;;5051924;28;20509;-46
2022/07/12 07:52:39;;;;;;;5.22;2.83;;;20.10;99.90;;;;;;5052015;28;20041;-47
2022/07/12 07:55:05;;;;;;;6.93;3.20;;;20.10;99.90;;;;;;5027355;28;20037;-46
2022/07/12 07:57:31;;;;;;;5.65;2.97;;;20.20;99.90;;;;;;5041359;28;20044;-46
2022/07/12 07:59:56;;;;;;;6.22;3.20;;;20.30;99.90;;;;;;5041402;28;20531;-46
2022/07/12 08:02:22;;;;;;;5.82;2.95;;;20.10;99.90;;;;;;5042575;28;20032;-46
2022/07/12 08:04:48;;;;;;;7.75;3.20;;;20.20;99.90;;;;;;5040660;28;20041;-45
2022/07/12 08:07:13;;;;;;;5.32;2.67;;;20.30;99.90;;;;;;5041535;28;20144;-46
2022/07/12 08:09:39;;;;;;;6.50;3.30;;;20.30;99.90;;;;;;5008463;28;20418;-48
2022/07/12 08:12:06;;;;;;;5.45;2.90;;;20.40;99.90;;;;;;5040726;28;20052;-46
2022/07/12 08:14:31;;;;;;;5.05;2.30;;;20.30;99.90;;;;;;5041717;28;20044;-46
2022/07/12 08:16:57;;;;;;;5.30;2.65;;;20.40;99.90;;;;;;5041440;28;20482;-50
2022/07/12 08:19:23;;;;;;;5.65;2.70;;;20.40;99.90;;;;;;5039743;28;20038;-46
2022/07/12 08:21:48;;;;;;;5.35;2.80;;;20.50;99.90;;;;;;5048706;28;20469;-47
2022/07/12 08:24:14;;;;;;;5.70;2.83;;;20.40;99.90;;;;;;5051166;28;20185;-50
2022/07/12 08:26:40;;;;;;;6.72;3.83;;;20.40;99.90;;;;;;5051100;28;20167;-46
2022/07/12 08:29:06;;;;;;;5.32;2.83;;;20.50;99.90;;;;;;5051131;28;20106;-48
2022/07/12 08:31:31;;;;;;;5.32;3.00;;;20.50;99.90;;;;;;5044053;28;20406;-46
2022/07/12 08:33:57;;;;;;;5.72;2.90;;;20.50;99.90;;;;;;5050530;28;20045;-47
2022/07/12 08:36:23;;;;;;;5.60;2.72;;;20.60;99.90;;;;;;5051061;28;20048;-48
2022/07/12 08:38:48;;;;;;;5.80;3.20;;;20.60;99.90;;;;;;5049921;28;20060;-50
2022/07/12 08:41:15;;;;;;;7.07;2.95;;;20.60;99.90;;;;;;5050986;28;20072;-48
2022/07/12 08:43:41;;;;;;;6.43;3.22;;;20.60;99.90;;;;;;5032659;28;20052;-47
2022/07/12 08:46:09;;;;;;;6.13;3.15;;;20.70;99.90;;;;;;5050056;28;20045;-47
2022/07/12 08:48:36;;;;;;;5.18;2.67;;;20.90;99.90;;;;;;5050829;28;20037;-47
2022/07/12 08:51:13;;;;;;;6.95;3.40;;;21.10;99.90;;;;;;5032751;28;20488;-46
2022/07/12 08:53:40;;;;;;;9.93;3.30;;;21.10;99.90;;;;;;5051480;28;20037;-48
2022/07/12 08:56:07;;;;;;;5.55;2.70;;;21.10;99.90;;;;;;5051159;28;20068;-47
2022/07/12 08:58:33;;;;;;;5.78;2.92;;;21.30;99.90;;;;;;5050875;28;20041;-47
2022/07/12 09:01:00;;;;;;;5.88;3.53;;;21.30;99.90;;;;;;5050911;28;20051;-51
2022/07/12 09:03:26;;;;;;;5.85;3.10;;;21.40;99.90;;;;;;5051705;28;20388;-47
2022/07/12 09:05:54;;;;;;;6.75;3.10;;;21.40;99.90;;;;;;5051902;28;20041;-49
2022/07/12 09:08:33;;;;;;;5.32;3.13;;;21.50;99.90;;;;;;5051652;28;20077;-50
2022/07/12 09:11:03;;;;;;;7.40;3.55;;;21.70;99.90;;;;;;5051709;28;20037;-47
2022/07/12 09:13:47;;;;;;;6.13;3.30;;;21.80;99.90;;;;;;5051870;28;20037;-47
2022/07/12 09:16:32;;;;;;;7.03;3.00;;;21.90;99.90;;;;;;5051955;28;20049;-46
2022/07/12 09:19:27;;;;;;;6.90;3.72;;;22.00;99.90;;;;;;5052024;28;20037;-49
2022/07/12 09:21:54;;;;;;;6.55;4.10;;;21.90;99.90;;;;;;5038517;28;20059;-48
2022/07/12 09:24:24;;;;;;;7.78;3.72;;;21.80;99.90;;;;;;5051836;28;20404;-55
2022/07/12 09:26:53;;;;;;;6.25;3.63;;;21.60;99.90;;;;;;5058384;28;20045;-58
2022/07/12 09:29:20;;;;;;;7.25;3.05;;;21.70;99.90;;;;;;5041042;28;20047;-46
2022/07/12 09:37:21;;;;;;;7.57;3.78;;;21.90;99.90;;;;;;5058298;28;20052;-57
2022/07/12 09:39:48;;;;;;;6.38;3.55;;;21.90;99.90;;;;;;5041540;28;20036;-47
2022/07/12 09:42:14;;;;;;;6.68;4.10;;;21.90;99.90;;;;;;5051762;28;20045;-47
2022/07/12 09:44:41;;;;;;;10.30;3.58;;;21.90;99.90;;;;;;5033470;28;20052;-49
2022/07/12 09:47:13;;;;;;;8.75;4.20;;;22.10;99.90;;;;;;5051561;28;20041;-48
2022/07/12 09:49:40;;;;;;;6.63;4.55;;;22.30;99.90;;;;;;5033803;28;20499;-52
2022/07/12 09:52:10;;;;;;;7.65;3.95;;;22.10;99.90;;;;;;5033663;28;20037;-50
2022/07/12 09:54:40;;;;;;;5.72;3.83;;;22.20;99.90;;;;;;5051437;28;20401;-47
2022/07/12 09:57:29;;;;;;;6.50;3.72;;;22.30;99.90;;;;;;5053112;28;20048;-46
2022/07/12 09:59:54;;;;;;;6.32;3.63;;;22.40;99.90;;;;;;5054497;28;20052;-52
2022/07/12 10:02:22;;;;;;;6.13;3.83;;;22.50;99.90;;;;;;5055077;28;20455;-51
2022/07/12 10:04:48;;;;;;;6.97;3.63;;;22.90;99.90;;;;;;5051502;28;20138;-52
2022/07/12 10:07:15;;;;;;;6.10;3.50;;;23.00;99.90;;;;;;5032270;28;20747;-50
2022/07/12 10:09:51;;;;;;;7.35;3.58;;;23.30;99.90;;;;;;5050261;28;20037;-46
2022/07/12 10:12:19;;;;;;;7.22;4.13;;;23.40;99.90;;;;;;5032155;28;20041;-46
2022/07/12 10:14:46;;;;;;;5.45;2.88;;;23.40;99.90;;;;;;5048592;28;20059;-47
2022/07/12 10:17:13;;;;;;;5.63;2.70;;;23.50;99.90;;;;;;5049483;28;20045;-46
2022/07/12 10:19:39;;;;;;;7.30;3.42;;;23.70;99.90;;;;;;5049644;28;20041;-47
2022/07/12 10:22:20;;;;;;;5.82;2.88;;;23.60;99.90;;;;;;5048989;28;21421;-46
2022/07/12 10:24:48;;;;;;;5.90;3.10;;;23.60;99.90;;;;;;5049579;28;20048;-49
2022/07/12 10:27:14;;;;;;;6.50;3.30;;;23.70;99.90;;;;;;5032520;28;20056;-52
2022/07/12 10:29:43;;;;;;;5.80;2.92;;;23.80;99.90;;;;;;5050760;28;20408;-62
2022/07/12 10:32:34;;;;;;;5.70;2.78;;;23.60;99.90;;;;;;5050233;28;20409;-51
2022/07/12 10:35:00;;;;;;;4.55;2.50;;;23.70;99.90;;;;;;5050349;28;20405;-52
2022/07/12 10:37:26;;;;;;;6.18;2.70;;;23.60;99.90;;;;;;5049620;28;21033;-53
2022/07/12 10:40:18;;;;;;;4.63;2.53;;;23.60;99.90;;;;;;5050327;28;20055;-49
2022/07/12 10:43:03;;;;;;;6.07;3.08;;;23.80;99.90;;;;;;5049675;28;20134;-50
2022/07/12 10:45:34;;;;;;;3.97;1.73;;;24.00;99.90;;;;;;5050127;28;20049;-54
2022/07/12 10:48:05;;;;;;;4.63;1.80;;;24.10;99.90;;;;;;5032793;28;20532;-46
2022/07/12 10:50:43;;;;;;;7.60;2.28;;;24.20;99.90;;;;;;5049550;28;20389;-46
2022/07/12 10:53:20;;;;;;;5.55;2.42;;;24.20;99.90;;;;;;5049041;28;20048;-51
2022/07/12 10:56:04;;;;;;;6.32;2.20;;;24.20;99.90;;;;;;5050431;28;20053;-55
2022/07/12 10:58:32;;;;;;;4.95;2.15;;;24.30;99.90;;;;;;5050375;28;20094;-54
2022/07/12 11:01:12;;;;;;;6.85;1.83;;;24.30;99.90;;;;;;5031386;28;20385;-48
2022/07/12 11:03:43;;;;;;;3.67;1.60;;;24.50;99.90;;;;;;5048645;28;20384;-47
2022/07/12 11:06:11;;;;;;;5.45;1.70;;;24.30;99.90;;;;;;5047601;28;20600;-47
2022/07/12 11:08:49;;;;;;;5.60;2.20;;;24.50;99.90;;;;;;5047128;28;20041;-50
2022/07/12 11:11:15;;;;;;;4.70;1.95;;;24.30;99.90;;;;;;5047661;28;20479;-47
2022/07/12 11:13:40;;;;;;;5.10;1.63;;;24.40;99.90;;;;;;5049065;28;20119;-51
2022/07/12 11:16:06;;;;;;;4.28;1.80;;;24.40;99.90;;;;;;5048885;28;20137;-47
2022/07/12 11:18:34;;;;;;;4.70;1.85;;;24.10;99.90;;;;;;5031439;28;20041;-48
2022/07/12 11:21:01;;;;;;;4.35;1.58;;;24.00;99.90;;;;;;5049753;28;20045;-48
2022/07/12 11:23:29;;;;;;;3.05;1.30;;;24.20;99.90;;;;;;5049257;28;20484;-47
2022/07/12 11:25:55;;;;;;;3.65;1.25;;;24.30;99.90;;;;;;5049627;28;20047;-47
2022/07/12 11:28:23;;;;;;;3.55;1.40;;;24.50;99.90;;;;;;5031617;28;20080;-48
2022/07/12 11:30:53;;;;;;;4.28;1.60;;;24.90;99.90;;;;;;5031063;28;20041;-52
2022/07/12 11:33:24;;;;;;;4.72;2.22;;;24.90;99.90;;;;;;5029555;28;20358;-49
2022/07/12 11:35:50;;;;;;;;;;;24.60;99.90;;;;;;5048732;28;20130;-50
2022/07/12 11:38:24;;;;;;;5.28;2.00;;;24.90;99.90;;;;;;5049314;28;19916;-49
2022/07/12 11:40:59;;;;;;;5.35;1.98;;;25.10;99.90;;;;;;5047840;28;20570;-50
2022/07/12 11:43:26;;;;;;;4.32;1.80;;;25.10;99.90;;;;;;5049106;28;20076;-51
2022/07/12 11:45:53;;;;;;;5.88;2.42;;;25.20;99.90;;;;;;5049765;28;20944;-51
2022/07/12 11:48:20;;;;;;;5.93;3.30;;;25.20;99.90;;;;;;5049283;28;20069;-46
2022/07/12 11:50:46;;;;;;;6.25;3.55;;;25.40;99.90;;;;;;5035113;28;20565;-47
2022/07/12 11:53:24;;;;;;;5.65;2.80;;;25.20;99.90;;;;;;5053191;28;20436;-48
2022/07/12 11:55:56;;;;;;;6.50;3.58;;;25.40;99.90;;;;;;5053160;28;20043;-47
2022/07/12 11:58:23;;;;;;;7.13;4.32;;;25.30;99.90;;;;;;5053202;28;20087;-51
2022/07/12 12:00:50;;;;;;;7.47;3.63;;;25.00;99.90;;;;;;5052949;28;20482;-47
2022/07/12 12:03:17;;;;;;;7.38;4.00;;;25.20;99.90;;;;;;5052629;28;20123;-47
2022/07/12 12:05:44;;;;;;;8.15;4.50;;;25.40;99.90;;;;;;5052354;28;20041;-46
2022/07/12 12:08:12;;;;;;;6.82;3.15;;;25.40;99.90;;;;;;5045112;28;20072;-51
2022/07/12 12:10:39;;;;;;;7.00;3.28;;;25.70;99.90;;;;;;5042293;28;20044;-46
2022/07/12 12:13:15;;;;;;;6.50;3.20;;;25.80;99.90;;;;;;5052238;28;20048;-51
2022/07/12 12:15:49;;;;;;;7.05;3.25;;;25.80;99.90;;;;;;5052468;28;20037;-49
2022/07/12 12:18:14;;;;;;;4.70;2.20;;;25.90;99.90;;;;;;5052591;28;20087;-50
2022/07/12 12:20:44;;;;;;;7.07;3.28;;;26.20;99.90;;;;;;5051761;28;20036;-49
2022/07/12 12:23:19;;;;;;;6.55;2.97;;;26.00;99.90;;;;;;5051704;28;20110;-46
2022/07/12 12:25:48;;;;;;;7.80;3.20;;;26.10;99.90;;;;;;5050297;28;20397;-46
2022/07/12 12:28:14;;;;;;;6.00;2.92;;;26.20;99.90;;;;;;5046554;28;20049;-49
2022/07/12 12:30:56;;;;;;;6.75;2.90;;;25.90;99.90;;;;;;5018277;28;20091;-49
2022/07/12 12:33:39;;;;;;;6.40;3.10;;;26.00;99.90;;;;;;5051977;28;20090;-47
2022/07/12 12:36:37;;;;;;;7.50;3.33;;;26.20;99.90;;;;;;5052408;28;20388;-46
2022/07/12 12:39:05;;;;;;;6.07;2.63;;;26.10;99.90;;;;;;5051346;28;20048;-46
2022/07/12 12:41:39;;;;;;;6.38;3.08;;;26.10;99.90;;;;;;5051271;28;20052;-46
2022/07/12 12:44:07;;;;;;;6.55;3.60;;;26.10;99.90;;;;;;5050671;28;20404;-45
2022/07/12 12:46:55;;;;;;;7.68;3.50;;;25.70;99.90;;;;;;5052341;28;20504;-46
2022/07/12 12:49:45;;;;;;;4.95;2.33;;;26.00;99.90;;;;;;5052212;28;20041;-46
2022/07/12 12:52:11;;;;;;;5.82;3.20;;;26.20;99.90;;;;;;5052033;28;20041;-46
2022/07/12 12:54:38;;;;;;;6.97;3.15;;;26.20;99.90;;;;;;5052232;28;20041;-46
2022/07/12 12:57:08;;;;;;;6.70;2.80;;;26.30;99.90;;;;;;5051857;28;20566;-46
2022/07/12 12:59:34;;;;;;;7.47;3.22;;;26.50;99.90;;;;;;5052104;28;20037;-45